Portada
METAR-TAF:

METAR-TAF

Aeroports :

Delta County Airport

Escanaba, Michigan, Estats Units d'Amèrica

latitud: 45-45N, longitud: 087-02W, altitud: 180 m

Observació

L'informe es va fer fa 19 minuts, a les 05:56 UTC
Vent 9 kt del Nord/Nord-Oest amb ràfegues de 17 kt
Temperatura 2°C
Humitat 93%
Pressió 1009 hPa
Visibilitat: 16.1 km
Cel cobert a una alçada de 1300 ft

METAR: KESC 300556Z AUTO 33009G17KT 10SM OVC013 02/01 A2979 RMK AO2 RAE05 SLP094 P0000 60000 T00220006 10039 20022 51032 FZRANO

Hora: 02:15 (06:15 UTC)


TAF: manca

Observacions i pronòstics meteorològics de més de 4000 aeroports (METAR i TAF).

Les estacions disponibles són els punts grocs i vermells al mapa.

Posi el ratolí al punt desitjat per veure el nom de l'estació.

Feu clic per veure les observacions i els pronòstics meteorològics.

Per canviar el mapa: feu clic els botons verds amb una creu de color negre per apropar; al botó verd amb un guió per allunyar la imatge; o en les fletxes verdes per a mapes adjacents.


METAR-TAF: